sensor_id;sensor_type;location;lat;lon;timestamp;P1;durP1;ratioP1;P2;durP2;ratioP2
842;SDS011;407;48.884;9.126;2023-02-08T00:01:51;21.88;;;9.80;;
842;SDS011;407;48.884;9.126;2023-02-08T00:04:16;17.00;;;8.40;;
842;SDS011;407;48.884;9.126;2023-02-08T00:06:42;22.15;;;9.50;;
842;SDS011;407;48.884;9.126;2023-02-08T00:09:08;20.83;;;8.38;;
842;SDS011;407;48.884;9.126;2023-02-08T00:11:34;19.47;;;9.13;;
842;SDS011;407;48.884;9.126;2023-02-08T00:13:59;22.30;;;9.57;;
842;SDS011;407;48.884;9.126;2023-02-08T00:16:25;23.47;;;10.20;;
842;SDS011;407;48.884;9.126;2023-02-08T00:18:51;20.35;;;8.88;;
842;SDS011;407;48.884;9.126;2023-02-08T00:21:17;23.57;;;8.80;;
842;SDS011;407;48.884;9.126;2023-02-08T00:23:44;23.27;;;9.40;;
842;SDS011;407;48.884;9.126;2023-02-08T00:26:10;21.02;;;9.30;;
842;SDS011;407;48.884;9.126;2023-02-08T00:28:36;18.10;;;8.10;;
842;SDS011;407;48.884;9.126;2023-02-08T00:31:02;21.43;;;7.97;;
842;SDS011;407;48.884;9.126;2023-02-08T00:33:27;17.97;;;8.00;;
842;SDS011;407;48.884;9.126;2023-02-08T00:35:57;22.90;;;9.13;;
842;SDS011;407;48.884;9.126;2023-02-08T00:38:26;22.17;;;8.55;;
842;SDS011;407;48.884;9.126;2023-02-08T00:40:52;21.63;;;9.32;;
842;SDS011;407;48.884;9.126;2023-02-08T00:43:18;20.48;;;9.85;;
842;SDS011;407;48.884;9.126;2023-02-08T00:45:43;22.55;;;10.30;;
842;SDS011;407;48.884;9.126;2023-02-08T00:48:09;26.67;;;10.63;;
842;SDS011;407;48.884;9.126;2023-02-08T00:50:34;25.13;;;9.63;;
842;SDS011;407;48.884;9.126;2023-02-08T00:53:00;24.15;;;10.27;;
842;SDS011;407;48.884;9.126;2023-02-08T00:55:25;25.60;;;9.30;;
842;SDS011;407;48.884;9.126;2023-02-08T00:57:52;20.15;;;9.27;;
842;SDS011;407;48.884;9.126;2023-02-08T01:00:18;23.05;;;10.90;;
842;SDS011;407;48.884;9.126;2023-02-08T01:02:43;25.70;;;10.40;;
842;SDS011;407;48.884;9.126;2023-02-08T01:05:09;26.87;;;10.50;;
842;SDS011;407;48.884;9.126;2023-02-08T01:07:37;18.50;;;9.00;;
842;SDS011;407;48.884;9.126;2023-02-08T01:10:04;19.80;;;8.70;;
842;SDS011;407;48.884;9.126;2023-02-08T01:12:31;21.58;;;9.70;;
842;SDS011;407;48.884;9.126;2023-02-08T01:14:57;22.08;;;9.88;;
842;SDS011;407;48.884;9.126;2023-02-08T01:17:22;19.23;;;9.00;;
842;SDS011;407;48.884;9.126;2023-02-08T01:19:48;18.60;;;9.60;;
842;SDS011;407;48.884;9.126;2023-02-08T01:22:14;23.02;;;10.55;;
842;SDS011;407;48.884;9.126;2023-02-08T01:24:39;18.73;;;9.32;;
842;SDS011;407;48.884;9.126;2023-02-08T01:27:05;21.37;;;10.13;;
842;SDS011;407;48.884;9.126;2023-02-08T01:29:30;20.20;;;9.63;;
842;SDS011;407;48.884;9.126;2023-02-08T01:31:56;20.67;;;10.43;;
842;SDS011;407;48.884;9.126;2023-02-08T01:34:21;22.83;;;10.20;;
842;SDS011;407;48.884;9.126;2023-02-08T01:36:47;23.03;;;10.13;;
842;SDS011;407;48.884;9.126;2023-02-08T01:39:13;23.92;;;10.50;;
842;SDS011;407;48.884;9.126;2023-02-08T01:41:40;19.85;;;10.23;;
842;SDS011;407;48.884;9.126;2023-02-08T01:46:38;21.77;;;9.60;;
842;SDS011;407;48.884;9.126;2023-02-08T01:49:16;20.83;;;10.18;;
842;SDS011;407;48.884;9.126;2023-02-08T01:51:56;19.77;;;8.98;;
842;SDS011;407;48.884;9.126;2023-02-08T01:54:37;20.52;;;10.23;;
842;SDS011;407;48.884;9.126;2023-02-08T01:57:07;21.58;;;9.65;;
842;SDS011;407;48.884;9.126;2023-02-08T01:59:36;21.70;;;9.18;;
842;SDS011;407;48.884;9.126;2023-02-08T02:02:06;24.08;;;9.60;;
842;SDS011;407;48.884;9.126;2023-02-08T02:04:39;22.02;;;9.52;;
842;SDS011;407;48.884;9.126;2023-02-08T02:07:05;19.65;;;9.20;;
842;SDS011;407;48.884;9.126;2023-02-08T02:09:44;19.60;;;9.93;;
842;SDS011;407;48.884;9.126;2023-02-08T02:12:17;22.38;;;9.70;;
842;SDS011;407;48.884;9.126;2023-02-08T02:14:44;22.52;;;9.82;;
842;SDS011;407;48.884;9.126;2023-02-08T02:17:12;22.35;;;10.02;;
842;SDS011;407;48.884;9.126;2023-02-08T02:19:44;22.77;;;9.15;;
842;SDS011;407;48.884;9.126;2023-02-08T02:22:34;19.75;;;10.25;;
842;SDS011;407;48.884;9.126;2023-02-08T02:25:28;19.92;;;9.75;;
842;SDS011;407;48.884;9.126;2023-02-08T02:38:48;20.90;;;10.23;;
842;SDS011;407;48.884;9.126;2023-02-08T02:44:33;18.80;;;9.27;;
842;SDS011;407;48.884;9.126;2023-02-08T02:50:29;25.55;;;10.05;;
842;SDS011;407;48.884;9.126;2023-02-08T02:53:06;18.88;;;8.95;;
842;SDS011;407;48.884;9.126;2023-02-08T02:55:35;19.45;;;8.98;;
842;SDS011;407;48.884;9.126;2023-02-08T02:58:06;15.23;;;7.95;;
842;SDS011;407;48.884;9.126;2023-02-08T03:00:36;19.42;;;8.75;;
842;SDS011;407;48.884;9.126;2023-02-08T03:03:01;18.55;;;8.43;;
842;SDS011;407;48.884;9.126;2023-02-08T03:05:27;21.23;;;9.38;;
842;SDS011;407;48.884;9.126;2023-02-08T03:21:17;19.38;;;9.85;;
842;SDS011;407;48.884;9.126;2023-02-08T03:23:58;25.02;;;9.57;;
842;SDS011;407;48.884;9.126;2023-02-08T03:26:35;22.00;;;8.43;;
842;SDS011;407;48.884;9.126;2023-02-08T03:29:13;17.02;;;8.02;;
842;SDS011;407;48.884;9.126;2023-02-08T03:31:58;16.13;;;8.20;;
842;SDS011;407;48.884;9.126;2023-02-08T03:39:49;15.63;;;8.02;;
842;SDS011;407;48.884;9.126;2023-02-08T03:42:21;19.35;;;9.10;;
842;SDS011;407;48.884;9.126;2023-02-08T03:44:53;18.58;;;8.63;;
842;SDS011;407;48.884;9.126;2023-02-08T03:47:35;18.70;;;8.80;;
842;SDS011;407;48.884;9.126;2023-02-08T03:50:05;17.50;;;7.60;;
842;SDS011;407;48.884;9.126;2023-02-08T03:52:34;19.17;;;8.57;;
842;SDS011;407;48.884;9.126;2023-02-08T03:55:02;17.52;;;8.15;;
842;SDS011;407;48.884;9.126;2023-02-08T03:57:37;19.88;;;8.80;;
842;SDS011;407;48.884;9.126;2023-02-08T04:00:14;18.65;;;8.15;;
842;SDS011;407;48.884;9.126;2023-02-08T04:05:25;19.45;;;8.65;;
842;SDS011;407;48.884;9.126;2023-02-08T04:07:52;17.80;;;8.20;;
842;SDS011;407;48.884;9.126;2023-02-08T04:10:18;21.60;;;9.00;;
842;SDS011;407;48.884;9.126;2023-02-08T04:12:45;18.47;;;7.60;;
842;SDS011;407;48.884;9.126;2023-02-08T04:15:13;21.15;;;9.45;;
842;SDS011;407;48.884;9.126;2023-02-08T04:17:39;19.73;;;8.23;;
842;SDS011;407;48.884;9.126;2023-02-08T04:20:04;20.58;;;8.15;;
842;SDS011;407;48.884;9.126;2023-02-08T04:22:30;16.48;;;7.78;;
842;SDS011;407;48.884;9.126;2023-02-08T04:24:57;19.30;;;7.82;;
842;SDS011;407;48.884;9.126;2023-02-08T04:27:23;17.75;;;7.45;;
842;SDS011;407;48.884;9.126;2023-02-08T04:29:49;15.48;;;7.00;;
842;SDS011;407;48.884;9.126;2023-02-08T04:32:14;20.13;;;8.90;;
842;SDS011;407;48.884;9.126;2023-02-08T04:34:40;19.00;;;8.30;;
842;SDS011;407;48.884;9.126;2023-02-08T04:37:06;16.43;;;6.67;;
842;SDS011;407;48.884;9.126;2023-02-08T04:39:32;22.07;;;8.73;;
842;SDS011;407;48.884;9.126;2023-02-08T04:41:57;15.00;;;7.30;;
842;SDS011;407;48.884;9.126;2023-02-08T04:44:23;18.95;;;7.68;;
842;SDS011;407;48.884;9.126;2023-02-08T04:46:49;19.73;;;7.90;;
842;SDS011;407;48.884;9.126;2023-02-08T04:49:15;17.50;;;8.20;;
842;SDS011;407;48.884;9.126;2023-02-08T04:51:40;16.90;;;7.70;;
842;SDS011;407;48.884;9.126;2023-02-08T04:54:06;21.23;;;9.07;;
842;SDS011;407;48.884;9.126;2023-02-08T04:56:32;23.65;;;8.90;;
842;SDS011;407;48.884;9.126;2023-02-08T04:58:58;16.77;;;7.78;;
842;SDS011;407;48.884;9.126;2023-02-08T05:01:24;16.80;;;8.23;;
842;SDS011;407;48.884;9.126;2023-02-08T05:03:50;17.60;;;7.90;;
842;SDS011;407;48.884;9.126;2023-02-08T05:06:15;21.38;;;8.43;;
842;SDS011;407;48.884;9.126;2023-02-08T05:08:41;17.35;;;8.43;;
842;SDS011;407;48.884;9.126;2023-02-08T05:11:06;16.13;;;7.57;;
842;SDS011;407;48.884;9.126;2023-02-08T05:13:32;16.67;;;7.60;;
842;SDS011;407;48.884;9.126;2023-02-08T05:15:58;18.03;;;8.67;;
842;SDS011;407;48.884;9.126;2023-02-08T05:18:23;18.73;;;7.88;;
842;SDS011;407;48.884;9.126;2023-02-08T05:20:56;16.08;;;7.90;;
842;SDS011;407;48.884;9.126;2023-02-08T05:23:23;15.95;;;7.68;;
842;SDS011;407;48.884;9.126;2023-02-08T05:25:49;24.40;;;11.20;;
842;SDS011;407;48.884;9.126;2023-02-08T05:28:15;23.67;;;9.60;;
842;SDS011;407;48.884;9.126;2023-02-08T05:30:41;18.65;;;8.60;;
842;SDS011;407;48.884;9.126;2023-02-08T05:33:06;19.85;;;8.70;;
842;SDS011;407;48.884;9.126;2023-02-08T05:35:32;23.08;;;9.45;;
842;SDS011;407;48.884;9.126;2023-02-08T05:37:58;21.13;;;9.30;;
842;SDS011;407;48.884;9.126;2023-02-08T05:40:23;17.20;;;9.17;;
842;SDS011;407;48.884;9.126;2023-02-08T05:42:49;18.77;;;9.43;;
842;SDS011;407;48.884;9.126;2023-02-08T05:45:14;19.55;;;9.85;;
842;SDS011;407;48.884;9.126;2023-02-08T05:47:40;23.45;;;10.50;;
842;SDS011;407;48.884;9.126;2023-02-08T05:50:07;17.38;;;9.38;;
842;SDS011;407;48.884;9.126;2023-02-08T05:52:33;20.33;;;9.25;;
842;SDS011;407;48.884;9.126;2023-02-08T05:54:58;18.60;;;9.30;;
842;SDS011;407;48.884;9.126;2023-02-08T05:57:24;24.00;;;11.30;;
842;SDS011;407;48.884;9.126;2023-02-08T05:59:50;30.43;;;11.43;;
842;SDS011;407;48.884;9.126;2023-02-08T06:02:15;24.80;;;12.55;;
842;SDS011;407;48.884;9.126;2023-02-08T06:04:41;23.65;;;11.40;;
842;SDS011;407;48.884;9.126;2023-02-08T06:07:07;22.37;;;10.60;;
842;SDS011;407;48.884;9.126;2023-02-08T06:09:32;21.27;;;10.33;;
842;SDS011;407;48.884;9.126;2023-02-08T06:11:58;22.10;;;11.07;;
842;SDS011;407;48.884;9.126;2023-02-08T06:14:23;30.50;;;10.65;;
842;SDS011;407;48.884;9.126;2023-02-08T06:16:49;23.07;;;9.50;;
842;SDS011;407;48.884;9.126;2023-02-08T06:19:14;24.80;;;10.10;;
842;SDS011;407;48.884;9.126;2023-02-08T06:21:40;22.85;;;10.43;;
842;SDS011;407;48.884;9.126;2023-02-08T06:24:06;20.95;;;9.60;;
842;SDS011;407;48.884;9.126;2023-02-08T06:26:32;20.35;;;10.35;;
842;SDS011;407;48.884;9.126;2023-02-08T06:28:58;24.90;;;10.23;;
842;SDS011;407;48.884;9.126;2023-02-08T06:31:24;22.05;;;9.30;;
842;SDS011;407;48.884;9.126;2023-02-08T06:33:50;19.20;;;9.60;;
842;SDS011;407;48.884;9.126;2023-02-08T06:36:15;30.07;;;9.57;;
842;SDS011;407;48.884;9.126;2023-02-08T06:38:41;25.23;;;9.20;;
842;SDS011;407;48.884;9.126;2023-02-08T06:41:07;18.23;;;8.40;;
842;SDS011;407;48.884;9.126;2023-02-08T06:43:33;22.48;;;8.48;;
842;SDS011;407;48.884;9.126;2023-02-08T06:45:58;18.85;;;8.93;;
842;SDS011;407;48.884;9.126;2023-02-08T06:48:29;20.17;;;8.57;;
842;SDS011;407;48.884;9.126;2023-02-08T06:50:55;22.05;;;7.78;;
842;SDS011;407;48.884;9.126;2023-02-08T06:53:20;20.60;;;9.25;;
842;SDS011;407;48.884;9.126;2023-02-08T06:55:47;23.13;;;9.27;;
842;SDS011;407;48.884;9.126;2023-02-08T06:58:13;23.75;;;9.35;;
842;SDS011;407;48.884;9.126;2023-02-08T07:00:39;27.97;;;9.57;;
842;SDS011;407;48.884;9.126;2023-02-08T07:03:04;16.87;;;7.43;;
842;SDS011;407;48.884;9.126;2023-02-08T07:05:32;23.80;;;9.55;;
842;SDS011;407;48.884;9.126;2023-02-08T07:07:59;27.90;;;9.68;;
842;SDS011;407;48.884;9.126;2023-02-08T07:10:24;30.70;;;11.90;;
842;SDS011;407;48.884;9.126;2023-02-08T07:12:50;29.07;;;12.60;;
842;SDS011;407;48.884;9.126;2023-02-08T07:15:16;26.35;;;10.02;;
842;SDS011;407;48.884;9.126;2023-02-08T07:17:41;25.02;;;9.68;;
842;SDS011;407;48.884;9.126;2023-02-08T07:20:07;23.13;;;9.70;;
842;SDS011;407;48.884;9.126;2023-02-08T07:22:35;19.05;;;9.02;;
842;SDS011;407;48.884;9.126;2023-02-08T07:25:01;19.80;;;8.63;;
842;SDS011;407;48.884;9.126;2023-02-08T07:27:27;23.70;;;9.48;;
842;SDS011;407;48.884;9.126;2023-02-08T07:29:53;22.52;;;8.82;;
842;SDS011;407;48.884;9.126;2023-02-08T07:32:18;20.23;;;9.70;;
842;SDS011;407;48.884;9.126;2023-02-08T07:34:44;23.73;;;10.37;;
842;SDS011;407;48.884;9.126;2023-02-08T07:37:10;24.83;;;11.10;;
842;SDS011;407;48.884;9.126;2023-02-08T07:39:36;28.43;;;11.60;;
842;SDS011;407;48.884;9.126;2023-02-08T07:42:02;27.83;;;11.60;;
842;SDS011;407;48.884;9.126;2023-02-08T07:44:29;26.17;;;12.25;;
842;SDS011;407;48.884;9.126;2023-02-08T07:46:54;25.57;;;11.10;;
842;SDS011;407;48.884;9.126;2023-02-08T07:49:20;27.60;;;10.07;;
842;SDS011;407;48.884;9.126;2023-02-08T07:51:46;18.27;;;8.40;;
842;SDS011;407;48.884;9.126;2023-02-08T07:54:11;22.70;;;10.23;;
842;SDS011;407;48.884;9.126;2023-02-08T07:56:37;24.75;;;11.32;;
842;SDS011;407;48.884;9.126;2023-02-08T07:59:03;20.33;;;9.70;;
842;SDS011;407;48.884;9.126;2023-02-08T08:01:29;22.47;;;10.43;;
842;SDS011;407;48.884;9.126;2023-02-08T08:03:54;22.70;;;12.00;;
842;SDS011;407;48.884;9.126;2023-02-08T08:06:20;22.70;;;13.13;;
842;SDS011;407;48.884;9.126;2023-02-08T08:08:47;21.30;;;12.43;;
842;SDS011;407;48.884;9.126;2023-02-08T08:11:14;27.52;;;15.52;;
842;SDS011;407;48.884;9.126;2023-02-08T08:13:40;22.88;;;15.88;;
842;SDS011;407;48.884;9.126;2023-02-08T08:16:06;26.07;;;16.83;;
842;SDS011;407;48.884;9.126;2023-02-08T08:18:34;24.93;;;17.30;;
842;SDS011;407;48.884;9.126;2023-02-08T08:21:00;22.25;;;14.93;;
842;SDS011;407;48.884;9.126;2023-02-08T08:23:26;20.48;;;14.63;;
842;SDS011;407;48.884;9.126;2023-02-08T08:25:53;22.73;;;15.82;;
842;SDS011;407;48.884;9.126;2023-02-08T08:28:19;25.73;;;15.23;;
842;SDS011;407;48.884;9.126;2023-02-08T08:30:44;28.08;;;17.17;;
842;SDS011;407;48.884;9.126;2023-02-08T08:33:11;24.53;;;16.77;;
842;SDS011;407;48.884;9.126;2023-02-08T08:35:38;23.58;;;17.80;;
842;SDS011;407;48.884;9.126;2023-02-08T08:38:04;24.50;;;18.58;;
842;SDS011;407;48.884;9.126;2023-02-08T08:40:29;21.27;;;16.53;;
842;SDS011;407;48.884;9.126;2023-02-08T08:42:55;24.13;;;16.30;;
842;SDS011;407;48.884;9.126;2023-02-08T08:45:21;25.60;;;16.25;;
842;SDS011;407;48.884;9.126;2023-02-08T08:47:47;22.30;;;16.10;;
842;SDS011;407;48.884;9.126;2023-02-08T08:50:13;21.03;;;16.60;;
842;SDS011;407;48.884;9.126;2023-02-08T08:52:38;23.85;;;16.35;;
842;SDS011;407;48.884;9.126;2023-02-08T08:55:05;20.65;;;16.80;;
842;SDS011;407;48.884;9.126;2023-02-08T08:57:31;23.55;;;15.93;;
842;SDS011;407;48.884;9.126;2023-02-08T08:59:56;21.10;;;15.57;;
842;SDS011;407;48.884;9.126;2023-02-08T09:02:22;21.93;;;15.93;;
842;SDS011;407;48.884;9.126;2023-02-08T09:04:48;25.25;;;17.45;;
842;SDS011;407;48.884;9.126;2023-02-08T09:07:14;21.57;;;16.33;;
842;SDS011;407;48.884;9.126;2023-02-08T09:09:41;23.40;;;17.63;;
842;SDS011;407;48.884;9.126;2023-02-08T09:12:11;22.80;;;16.55;;
842;SDS011;407;48.884;9.126;2023-02-08T09:14:39;22.23;;;17.38;;
842;SDS011;407;48.884;9.126;2023-02-08T09:17:04;25.37;;;17.27;;
842;SDS011;407;48.884;9.126;2023-02-08T09:19:30;23.27;;;17.03;;
842;SDS011;407;48.884;9.126;2023-02-08T09:21:56;21.67;;;16.33;;
842;SDS011;407;48.884;9.126;2023-02-08T09:24:22;24.30;;;19.10;;
842;SDS011;407;48.884;9.126;2023-02-08T09:26:54;23.87;;;16.57;;
842;SDS011;407;48.884;9.126;2023-02-08T09:29:19;20.00;;;17.25;;
842;SDS011;407;48.884;9.126;2023-02-08T09:31:45;23.58;;;17.17;;
842;SDS011;407;48.884;9.126;2023-02-08T09:34:11;26.30;;;17.90;;
842;SDS011;407;48.884;9.126;2023-02-08T09:36:38;22.95;;;18.00;;
842;SDS011;407;48.884;9.126;2023-02-08T09:39:10;21.88;;;18.40;;
842;SDS011;407;48.884;9.126;2023-02-08T09:46:44;20.60;;;17.02;;
842;SDS011;407;48.884;9.126;2023-02-08T09:49:23;22.75;;;16.52;;
842;SDS011;407;48.884;9.126;2023-02-08T09:52:07;20.60;;;15.02;;
842;SDS011;407;48.884;9.126;2023-02-08T09:54:40;23.42;;;15.13;;
842;SDS011;407;48.884;9.126;2023-02-08T09:57:12;21.77;;;14.40;;
842;SDS011;407;48.884;9.126;2023-02-08T09:59:46;21.70;;;14.38;;
842;SDS011;407;48.884;9.126;2023-02-08T10:02:25;20.00;;;12.80;;
842;SDS011;407;48.884;9.126;2023-02-08T10:05:31;23.02;;;13.02;;
842;SDS011;407;48.884;9.126;2023-02-08T10:07:50;18.98;;;13.20;;
842;SDS011;407;48.884;9.126;2023-02-08T10:11:03;19.13;;;12.98;;
842;SDS011;407;48.884;9.126;2023-02-08T10:13:17;20.48;;;13.38;;
842;SDS011;407;48.884;9.126;2023-02-08T10:15:53;18.67;;;13.40;;
842;SDS011;407;48.884;9.126;2023-02-08T10:18:28;23.20;;;13.40;;
842;SDS011;407;48.884;9.126;2023-02-08T10:37:59;21.33;;;13.27;;
842;SDS011;407;48.884;9.126;2023-02-08T10:40:28;21.67;;;14.20;;
842;SDS011;407;48.884;9.126;2023-02-08T10:43:05;21.70;;;13.80;;
842;SDS011;407;48.884;9.126;2023-02-08T10:46:03;18.97;;;12.70;;
842;SDS011;407;48.884;9.126;2023-02-08T10:51:28;21.80;;;13.10;;
842;SDS011;407;48.884;9.126;2023-02-08T10:53:54;20.57;;;13.60;;
842;SDS011;407;48.884;9.126;2023-02-08T10:58:53;20.73;;;12.43;;
842;SDS011;407;48.884;9.126;2023-02-08T11:01:27;21.60;;;12.90;;
842;SDS011;407;48.884;9.126;2023-02-08T11:04:00;17.30;;;11.50;;
842;SDS011;407;48.884;9.126;2023-02-08T11:06:38;21.10;;;13.13;;
842;SDS011;407;48.884;9.126;2023-02-08T11:09:05;23.60;;;14.35;;
842;SDS011;407;48.884;9.126;2023-02-08T11:11:38;19.37;;;14.00;;
842;SDS011;407;48.884;9.126;2023-02-08T11:14:07;19.20;;;13.93;;
842;SDS011;407;48.884;9.126;2023-02-08T11:16:41;22.58;;;15.18;;
842;SDS011;407;48.884;9.126;2023-02-08T11:22:00;19.00;;;14.32;;
842;SDS011;407;48.884;9.126;2023-02-08T11:24:36;22.38;;;15.45;;
842;SDS011;407;48.884;9.126;2023-02-08T11:27:17;22.05;;;14.98;;
842;SDS011;407;48.884;9.126;2023-02-08T11:32:37;20.58;;;14.68;;
842;SDS011;407;48.884;9.126;2023-02-08T11:35:11;19.92;;;13.30;;
842;SDS011;407;48.884;9.126;2023-02-08T11:37:53;19.77;;;13.10;;
842;SDS011;407;48.884;9.126;2023-02-08T11:40:31;18.65;;;11.95;;
842;SDS011;407;48.884;9.126;2023-02-08T11:43:00;18.70;;;11.55;;
842;SDS011;407;48.884;9.126;2023-02-08T11:45:59;20.25;;;11.70;;
842;SDS011;407;48.884;9.126;2023-02-08T11:51:11;15.27;;;9.88;;
842;SDS011;407;48.884;9.126;2023-02-08T11:53:47;13.10;;;8.80;;
842;SDS011;407;48.884;9.126;2023-02-08T11:56:17;17.88;;;10.30;;
842;SDS011;407;48.884;9.126;2023-02-08T12:01:47;18.03;;;9.00;;
842;SDS011;407;48.884;9.126;2023-02-08T12:04:13;15.48;;;9.50;;
842;SDS011;407;48.884;9.126;2023-02-08T12:23:17;16.00;;;8.77;;
842;SDS011;407;48.884;9.126;2023-02-08T12:26:10;14.55;;;9.23;;
842;SDS011;407;48.884;9.126;2023-02-08T12:31:42;11.48;;;8.35;;
842;SDS011;407;48.884;9.126;2023-02-08T12:34:16;14.48;;;7.43;;
842;SDS011;407;48.884;9.126;2023-02-08T12:40:27;13.23;;;6.27;;
842;SDS011;407;48.884;9.126;2023-02-08T12:45:58;12.60;;;7.10;;
842;SDS011;407;48.884;9.126;2023-02-08T12:54:02;9.07;;;5.38;;
842;SDS011;407;48.884;9.126;2023-02-08T12:56:53;13.73;;;6.55;;
842;SDS011;407;48.884;9.126;2023-02-08T12:59:25;11.85;;;7.20;;
842;SDS011;407;48.884;9.126;2023-02-08T13:01:56;15.43;;;6.30;;
842;SDS011;407;48.884;9.126;2023-02-08T13:04:46;12.27;;;6.70;;
842;SDS011;407;48.884;9.126;2023-02-08T13:07:39;15.68;;;6.70;;
842;SDS011;407;48.884;9.126;2023-02-08T13:10:18;13.98;;;7.47;;
842;SDS011;407;48.884;9.126;2023-02-08T13:12:58;10.00;;;5.38;;
842;SDS011;407;48.884;9.126;2023-02-08T13:15:56;12.55;;;6.30;;
842;SDS011;407;48.884;9.126;2023-02-08T13:18:29;11.88;;;6.38;;
842;SDS011;407;48.884;9.126;2023-02-08T13:20:58;11.60;;;6.68;;
842;SDS011;407;48.884;9.126;2023-02-08T13:23:37;12.80;;;6.93;;
842;SDS011;407;48.884;9.126;2023-02-08T13:26:12;13.07;;;6.70;;
842;SDS011;407;48.884;9.126;2023-02-08T13:28:46;13.80;;;7.70;;
842;SDS011;407;48.884;9.126;2023-02-08T13:31:15;12.60;;;7.00;;
842;SDS011;407;48.884;9.126;2023-02-08T13:33:49;12.60;;;6.40;;
842;SDS011;407;48.884;9.126;2023-02-08T13:36:34;12.82;;;6.72;;
842;SDS011;407;48.884;9.126;2023-02-08T13:39:03;15.30;;;5.90;;
842;SDS011;407;48.884;9.126;2023-02-08T13:41:32;10.95;;;6.05;;
842;SDS011;407;48.884;9.126;2023-02-08T13:44:01;12.80;;;6.22;;
842;SDS011;407;48.884;9.126;2023-02-08T13:46:36;15.88;;;6.22;;
842;SDS011;407;48.884;9.126;2023-02-08T13:49:37;10.30;;;5.50;;
842;SDS011;407;48.884;9.126;2023-02-08T14:03:28;12.85;;;7.32;;
842;SDS011;407;48.884;9.126;2023-02-08T14:06:14;12.85;;;5.97;;
842;SDS011;407;48.884;9.126;2023-02-08T14:08:51;12.20;;;6.75;;
842;SDS011;407;48.884;9.126;2023-02-08T14:19:21;11.40;;;6.47;;
842;SDS011;407;48.884;9.126;2023-02-08T14:21:59;10.40;;;6.60;;
842;SDS011;407;48.884;9.126;2023-02-08T14:24:46;12.38;;;6.90;;
842;SDS011;407;48.884;9.126;2023-02-08T14:27:22;10.50;;;6.72;;
842;SDS011;407;48.884;9.126;2023-02-08T14:32:41;12.07;;;7.13;;
842;SDS011;407;48.884;9.126;2023-02-08T14:37:42;14.63;;;7.68;;
842;SDS011;407;48.884;9.126;2023-02-08T14:45:33;13.43;;;7.18;;
842;SDS011;407;48.884;9.126;2023-02-08T14:48:20;12.30;;;6.72;;
842;SDS011;407;48.884;9.126;2023-02-08T14:50:52;13.68;;;7.00;;
842;SDS011;407;48.884;9.126;2023-02-08T14:56:12;18.77;;;7.23;;
842;SDS011;407;48.884;9.126;2023-02-08T14:58:46;15.10;;;7.47;;
842;SDS011;407;48.884;9.126;2023-02-08T15:01:24;15.18;;;7.40;;
842;SDS011;407;48.884;9.126;2023-02-08T15:04:07;12.80;;;7.93;;
842;SDS011;407;48.884;9.126;2023-02-08T15:09:44;15.57;;;8.18;;
842;SDS011;407;48.884;9.126;2023-02-08T15:11:59;15.53;;;8.27;;
842;SDS011;407;48.884;9.126;2023-02-08T15:14:38;13.38;;;8.15;;
842;SDS011;407;48.884;9.126;2023-02-08T15:17:05;15.05;;;9.35;;
842;SDS011;407;48.884;9.126;2023-02-08T15:19:43;11.83;;;7.40;;
842;SDS011;407;48.884;9.126;2023-02-08T15:22:15;12.93;;;4.70;;
842;SDS011;407;48.884;9.126;2023-02-08T15:24:48;11.82;;;4.75;;
842;SDS011;407;48.884;9.126;2023-02-08T15:27:19;12.40;;;5.20;;
842;SDS011;407;48.884;9.126;2023-02-08T15:29:52;11.75;;;4.47;;
842;SDS011;407;48.884;9.126;2023-02-08T15:32:20;10.77;;;4.50;;
842;SDS011;407;48.884;9.126;2023-02-08T15:34:58;13.05;;;5.65;;
842;SDS011;407;48.884;9.126;2023-02-08T15:37:26;13.20;;;5.10;;
842;SDS011;407;48.884;9.126;2023-02-08T15:40:19;13.80;;;5.30;;
842;SDS011;407;48.884;9.126;2023-02-08T15:42:53;13.90;;;5.90;;
842;SDS011;407;48.884;9.126;2023-02-08T15:45:23;17.95;;;5.90;;
842;SDS011;407;48.884;9.126;2023-02-08T15:47:50;12.60;;;4.78;;
842;SDS011;407;48.884;9.126;2023-02-08T15:50:18;11.30;;;4.32;;
842;SDS011;407;48.884;9.126;2023-02-08T15:52:46;10.50;;;4.40;;
842;SDS011;407;48.884;9.126;2023-02-08T15:55:14;17.33;;;6.20;;
842;SDS011;407;48.884;9.126;2023-02-08T15:57:53;18.00;;;6.85;;
842;SDS011;407;48.884;9.126;2023-02-08T16:00:32;13.37;;;5.13;;
842;SDS011;407;48.884;9.126;2023-02-08T16:03:01;14.48;;;5.70;;
842;SDS011;407;48.884;9.126;2023-02-08T16:05:33;14.27;;;5.90;;
842;SDS011;407;48.884;9.126;2023-02-08T16:08:00;15.60;;;6.07;;
842;SDS011;407;48.884;9.126;2023-02-08T16:10:34;16.13;;;5.90;;
842;SDS011;407;48.884;9.126;2023-02-08T16:13:06;14.38;;;5.40;;
842;SDS011;407;48.884;9.126;2023-02-08T16:16:19;10.77;;;4.78;;
842;SDS011;407;48.884;9.126;2023-02-08T16:18:57;15.57;;;6.60;;
842;SDS011;407;48.884;9.126;2023-02-08T16:21:43;14.85;;;6.88;;
842;SDS011;407;48.884;9.126;2023-02-08T16:29:20;18.23;;;6.60;;
842;SDS011;407;48.884;9.126;2023-02-08T16:32:04;14.18;;;6.07;;
842;SDS011;407;48.884;9.126;2023-02-08T16:34:45;19.80;;;6.43;;
842;SDS011;407;48.884;9.126;2023-02-08T16:37:44;14.02;;;5.93;;
842;SDS011;407;48.884;9.126;2023-02-08T16:40:04;15.40;;;6.28;;
842;SDS011;407;48.884;9.126;2023-02-08T16:42:51;13.75;;;6.00;;
842;SDS011;407;48.884;9.126;2023-02-08T16:45:18;15.43;;;6.18;;
842;SDS011;407;48.884;9.126;2023-02-08T16:48:26;17.85;;;6.10;;
842;SDS011;407;48.884;9.126;2023-02-08T16:51:08;15.75;;;6.50;;
842;SDS011;407;48.884;9.126;2023-02-08T16:53:55;18.60;;;6.70;;
842;SDS011;407;48.884;9.126;2023-02-08T16:56:26;17.20;;;6.43;;
842;SDS011;407;48.884;9.126;2023-02-08T16:58:52;17.80;;;6.60;;
842;SDS011;407;48.884;9.126;2023-02-08T17:01:18;19.60;;;7.63;;
842;SDS011;407;48.884;9.126;2023-02-08T17:03:47;20.02;;;6.90;;
842;SDS011;407;48.884;9.126;2023-02-08T17:06:35;15.18;;;6.75;;
842;SDS011;407;48.884;9.126;2023-02-08T17:09:03;18.27;;;8.93;;
842;SDS011;407;48.884;9.126;2023-02-08T17:11:30;16.27;;;7.80;;
842;SDS011;407;48.884;9.126;2023-02-08T17:13:56;22.17;;;9.70;;
842;SDS011;407;48.884;9.126;2023-02-08T17:16:25;20.80;;;9.85;;
842;SDS011;407;48.884;9.126;2023-02-08T17:18:53;19.50;;;8.27;;
842;SDS011;407;48.884;9.126;2023-02-08T17:21:18;20.48;;;9.18;;
842;SDS011;407;48.884;9.126;2023-02-08T17:23:44;19.53;;;8.90;;
842;SDS011;407;48.884;9.126;2023-02-08T17:26:12;18.48;;;9.23;;
842;SDS011;407;48.884;9.126;2023-02-08T17:28:38;20.85;;;9.20;;
842;SDS011;407;48.884;9.126;2023-02-08T17:31:04;23.20;;;9.17;;
842;SDS011;407;48.884;9.126;2023-02-08T17:33:30;20.42;;;8.70;;
842;SDS011;407;48.884;9.126;2023-02-08T17:36:00;23.73;;;9.80;;
842;SDS011;407;48.884;9.126;2023-02-08T17:38:26;21.27;;;9.57;;
842;SDS011;407;48.884;9.126;2023-02-08T17:40:52;22.25;;;9.75;;
842;SDS011;407;48.884;9.126;2023-02-08T17:43:18;16.35;;;7.95;;
842;SDS011;407;48.884;9.126;2023-02-08T17:45:47;20.13;;;8.88;;
842;SDS011;407;48.884;9.126;2023-02-08T17:48:12;17.17;;;7.50;;
842;SDS011;407;48.884;9.126;2023-02-08T17:50:39;15.35;;;7.47;;
842;SDS011;407;48.884;9.126;2023-02-08T17:53:11;18.70;;;7.70;;
842;SDS011;407;48.884;9.126;2023-02-08T17:55:39;18.23;;;7.95;;
842;SDS011;407;48.884;9.126;2023-02-08T17:58:06;22.83;;;9.15;;
842;SDS011;407;48.884;9.126;2023-02-08T18:00:32;20.48;;;8.57;;
842;SDS011;407;48.884;9.126;2023-02-08T18:02:58;21.77;;;8.70;;
842;SDS011;407;48.884;9.126;2023-02-08T18:05:25;20.40;;;8.40;;
842;SDS011;407;48.884;9.126;2023-02-08T18:07:52;18.08;;;8.10;;
842;SDS011;407;48.884;9.126;2023-02-08T18:10:19;18.70;;;8.20;;
842;SDS011;407;48.884;9.126;2023-02-08T18:12:45;24.25;;;9.95;;
842;SDS011;407;48.884;9.126;2023-02-08T18:15:12;20.65;;;9.05;;
842;SDS011;407;48.884;9.126;2023-02-08T18:17:39;16.42;;;7.47;;